TimePDT,TemperatureF,Dew PointF,Humidity,Sea Level PressureIn,VisibilityMPH,Wind Direction,Wind SpeedMPH,Gust SpeedMPH,PrecipitationIn,Events,Conditions,WindDirDegrees,DateUTC
12:00 AM,63.9,59.2,85,30.02,-9999.0,WSW,10.4,-,N/A,,Unknown,250,2013-09-05 07:00:00
1:00 AM,63.7,58.8,84,30.02,-9999.0,WSW,11.5,-,N/A,,Unknown,250,2013-09-05 08:00:00
2:00 AM,63.1,58.3,84,30.01,-9999.0,WSW,12.7,-,N/A,,Unknown,240,2013-09-05 09:00:00
3:00 AM,64.6,58.1,79,30.01,-9999.0,West,12.7,-,N/A,,Unknown,270,2013-09-05 10:00:00
4:00 AM,64.4,57.2,77,30.01,-9999.0,West,15.0,-,N/A,,Unknown,270,2013-09-05 11:00:00
5:00 AM,64,56,69,30.00,,West,15.0,,,,,260,2013-09-05 12:00:00
5:00 AM,63.7,56.3,77,30.00,-9999.0,West,15.0,-,N/A,,Unknown,260,2013-09-05 12:00:00
6:00 AM,62.6,55.9,79,30.00,-9999.0,WSW,16.1,-,N/A,,Unknown,250,2013-09-05 13:00:00
7:00 AM,62.8,57.0,81,30.00,-9999.0,West,15.0,-,N/A,,Unknown,260,2013-09-05 14:00:00
8:00 AM,63.1,56.1,78,30.01,-9999.0,West,16.1,-,N/A,,Unknown,270,2013-09-05 15:00:00
9:00 AM,63.0,56.3,79,30.02,-9999.0,West,17.3,-,N/A,,Unknown,280,2013-09-05 16:00:00
10:00 AM,63.0,56.1,78,30.03,-9999.0,West,15.0,-,N/A,,Unknown,260,2013-09-05 17:00:00
11:00 AM,63,56,72,30.03,,West,11.5,,,,,260,2013-09-05 18:00:00
11:00 AM,63.1,56.1,78,30.03,-9999.0,West,11.5,-,N/A,,Unknown,260,2013-09-05 18:00:00
12:00 PM,63.0,56.7,80,30.02,-9999.0,West,16.1,-,N/A,,Unknown,270,2013-09-05 19:00:00
1:00 PM,63.1,56.5,79,30.02,-9999.0,West,12.7,-,N/A,,Unknown,270,2013-09-05 20:00:00
2:00 PM,62.2,57.2,84,30.01,-9999.0,West,12.7,-,0.02,,Unknown,270,2013-09-05 21:00:00
3:00 PM,63.1,58.3,84,30.00,-9999.0,West,10.4,-,N/A,,Unknown,280,2013-09-05 22:00:00
4:00 PM,64.0,58.5,82,29.99,-9999.0,West,8.1,-,N/A,,Unknown,260,2013-09-05 23:00:00
5:00 PM,65.3,58.8,80,29.96,-9999.0,NW,9.2,-,N/A,,Unknown,320,2013-09-06 00:00:00
6:00 PM,63.9,59.2,85,29.95,-9999.0,West,11.5,-,N/A,,Unknown,260,2013-09-06 01:00:00
7:00 PM,63.5,60.1,89,29.93,-9999.0,WNW,11.5,-,N/A,,Unknown,300,2013-09-06 02:00:00
8:00 PM,63.3,59.5,87,29.93,-9999.0,NW,9.2,-,N/A,,Unknown,310,2013-09-06 03:00:00
9:00 PM,63.5,59.7,87,29.91,-9999.0,West,12.7,-,N/A,,Unknown,280,2013-09-06 04:00:00
10:00 PM,64.6,60.3,86,29.90,-9999.0,West,13.8,-,N/A,,Unknown,270,2013-09-06 05:00:00
11:00 PM,64,59,80,29.91,,WNW,17.3,,,,,290,2013-09-06 06:00:00
11:00 PM,64.0,59.4,85,29.91,-9999.0,WNW,17.3,-,N/A,,Unknown,290,2013-09-06 06:00:00